Time,TemperatureF,DewpointF,PressureIn,WindDirection,WindDirectionDegrees,WindSpeedMPH,WindSpeedGustMPH,Humidity,HourlyPrecipIn,Conditions,Clouds,dailyrainin,SoftwareType,DateUTC
2013-01-26 00:04:00,11.4,8.3,30.12,East,83,0.0,6.0,87,0.00,,,0.00,Wunderground v.1.15,2013-01-26 05:04:00,
2013-01-26 00:09:00,11.4,8.3,30.12,East,83,0.0,6.0,87,0.00,,,0.00,Wunderground v.1.15,2013-01-26 05:09:00,
2013-01-26 00:15:00,11.3,7.9,30.12,East,83,0.0,6.0,86,0.00,,,0.00,Wunderground v.1.15,2013-01-26 05:15:00,
2013-01-26 00:20:00,11.2,7.8,30.12,East,83,0.0,6.0,86,0.00,,,0.00,Wunderground v.1.15,2013-01-26 05:20:00,
2013-01-26 00:25:00,11.1,7.7,30.12,East,83,0.0,6.0,86,0.00,,,0.00,Wunderground v.1.15,2013-01-26 05:25:00,
2013-01-26 00:34:00,10.9,7.5,30.12,East,83,0.0,6.0,86,0.00,,,0.00,Wunderground v.1.15,2013-01-26 05:34:00,
2013-01-26 00:39:00,10.7,7.3,30.12,East,83,0.0,6.0,86,0.00,,,0.00,Wunderground v.1.15,2013-01-26 05:39:00,
2013-01-26 00:44:00,10.4,6.8,30.12,East,83,0.0,6.0,85,0.00,,,0.00,Wunderground v.1.15,2013-01-26 05:44:00,
2013-01-26 00:50:00,10.1,6.5,30.12,East,83,0.0,6.0,85,0.00,,,0.00,Wunderground v.1.15,2013-01-26 05:50:00,
2013-01-26 00:55:00,9.8,6.2,30.12,East,83,0.0,6.0,85,0.00,,,0.00,Wunderground v.1.15,2013-01-26 05:55:00,
2013-01-26 01:04:00,9.3,6.0,30.12,East,83,0.0,6.0,86,0.00,,,0.00,Wunderground v.1.15,2013-01-26 06:04:00,
2013-01-26 01:09:00,9.1,5.8,30.11,East,81,0.0,6.0,86,0.00,,,0.00,Wunderground v.1.15,2013-01-26 06:09:00,
2013-01-26 01:14:00,9.0,5.7,30.11,East,81,0.0,6.0,86,0.00,,,0.00,Wunderground v.1.15,2013-01-26 06:14:00,
2013-01-26 01:20:00,8.7,5.4,30.11,East,81,0.0,6.0,86,0.00,,,0.00,Wunderground v.1.15,2013-01-26 06:20:00,
2013-01-26 01:25:00,8.4,5.1,30.11,East,81,0.0,6.0,86,0.00,,,0.00,Wunderground v.1.15,2013-01-26 06:25:00,
2013-01-26 01:30:00,8.2,4.9,30.11,East,81,0.0,6.0,86,0.00,,,0.00,Wunderground v.1.15,2013-01-26 06:30:00,
2013-01-26 01:40:00,7.9,4.8,30.11,East,81,0.0,6.0,87,0.00,,,0.00,Wunderground v.1.15,2013-01-26 06:40:00,
2013-01-26 01:49:00,7.7,4.6,30.11,East,81,0.0,6.0,87,0.00,,,0.00,Wunderground v.1.15,2013-01-26 06:49:00,
2013-01-26 01:54:00,7.8,5.0,30.11,East,79,0.0,6.0,88,0.00,,,0.00,Wunderground v.1.15,2013-01-26 06:54:00,
2013-01-26 02:00:00,7.8,5.0,30.11,ENE,78,0.0,6.0,88,0.00,,,0.00,Wunderground v.1.15,2013-01-26 07:00:00,
2013-01-26 02:05:00,7.8,4.7,30.12,WNW,297,0.0,6.0,87,0.00,,,0.00,Wunderground v.1.15,2013-01-26 07:05:00,
2013-01-26 02:10:00,7.8,4.7,30.11,NW,315,0.0,6.0,87,0.00,,,0.00,Wunderground v.1.15,2013-01-26 07:10:00,
2013-01-26 02:15:00,7.7,4.6,30.11,NW,318,0.0,6.0,87,0.00,,,0.00,Wunderground v.1.15,2013-01-26 07:15:00,
2013-01-26 02:24:00,7.7,4.6,30.11,NW,317,1.0,6.0,87,0.00,,,0.00,Wunderground v.1.15,2013-01-26 07:24:00,
2013-01-26 02:29:00,7.7,4.6,30.11,NW,316,1.0,1.0,87,0.00,,,0.00,Wunderground v.1.15,2013-01-26 07:29:00,
2013-01-26 02:34:00,7.8,5.0,30.11,NNW,338,1.0,5.0,88,0.00,,,0.00,Wunderground v.1.15,2013-01-26 07:34:00,
2013-01-26 02:40:00,8.1,5.3,30.11,NNW,344,1.0,1.0,88,0.00,,,0.00,Wunderground v.1.15,2013-01-26 07:40:00,
2013-01-26 02:45:00,8.3,5.5,30.11,North,355,1.0,6.0,88,0.00,,,0.00,Wunderground v.1.15,2013-01-26 07:45:00,
2013-01-26 02:50:00,8.4,5.3,30.11,North,350,1.0,6.0,87,0.00,,,0.00,Wunderground v.1.15,2013-01-26 07:50:00,
2013-01-26 02:55:00,8.4,5.3,30.11,NNW,348,1.0,6.0,87,0.00,,,0.00,Wunderground v.1.15,2013-01-26 07:55:00,
2013-01-26 03:04:00,8.1,4.8,30.11,NNW,348,0.0,6.0,86,0.00,,,0.00,Wunderground v.1.15,2013-01-26 08:04:00,
2013-01-26 03:09:00,7.9,4.6,30.11,NNW,348,0.0,6.0,86,0.00,,,0.00,Wunderground v.1.15,2013-01-26 08:09:00,
2013-01-26 03:15:00,7.7,4.1,30.11,NNW,348,0.0,6.0,85,0.00,,,0.00,Wunderground v.1.15,2013-01-26 08:15:00,
2013-01-26 03:24:00,7.3,4.0,30.10,NNW,348,0.0,0.0,86,0.00,,,0.00,Wunderground v.1.15,2013-01-26 08:24:00,
2013-01-26 03:29:00,7.3,4.0,30.10,NNW,348,0.0,1.0,86,0.00,,,0.00,Wunderground v.1.15,2013-01-26 08:29:00,
2013-01-26 03:34:00,7.2,3.9,30.10,NNW,348,0.0,1.0,86,0.00,,,0.00,Wunderground v.1.15,2013-01-26 08:34:00,
2013-01-26 03:39:00,7.1,3.8,30.10,NNW,348,0.0,0.0,86,0.00,,,0.00,Wunderground v.1.15,2013-01-26 08:39:00,
2013-01-26 03:45:00,7.0,3.7,30.10,NNW,348,0.0,0.0,86,0.00,,,0.00,Wunderground v.1.15,2013-01-26 08:45:00,
2013-01-26 03:50:00,6.9,3.6,30.10,NNW,348,0.0,0.0,86,0.00,,,0.00,Wunderground v.1.15,2013-01-26 08:50:00,
2013-01-26 03:55:00,6.9,3.8,30.10,North,349,0.0,0.0,87,0.00,,,0.00,Wunderground v.1.15,2013-01-26 08:55:00,
2013-01-26 04:00:00,6.9,3.8,30.10,North,349,0.0,0.0,87,0.00,,,0.00,Wunderground v.1.15,2013-01-26 09:00:00,
2013-01-26 04:09:00,6.8,3.5,30.11,North,349,0.0,6.0,86,0.00,,,0.00,Wunderground v.1.15,2013-01-26 09:09:00,
2013-01-26 04:14:00,6.7,3.4,30.11,North,349,0.0,6.0,86,0.00,,,0.00,Wunderground v.1.15,2013-01-26 09:14:00,
2013-01-26 04:20:00,6.5,3.2,30.11,North,349,0.0,6.0,86,0.00,,,0.00,Wunderground v.1.15,2013-01-26 09:20:00,
2013-01-26 04:25:00,6.3,3.0,30.11,North,349,0.0,6.0,86,0.00,,,0.00,Wunderground v.1.15,2013-01-26 09:25:00,
2013-01-26 04:30:00,6.0,2.7,30.11,North,349,0.0,6.0,86,0.00,,,0.00,Wunderground v.1.15,2013-01-26 09:30:00,
2013-01-26 04:35:00,5.9,2.9,30.11,North,349,0.0,6.0,87,0.00,,,0.00,Wunderground v.1.15,2013-01-26 09:35:00,
2013-01-26 04:40:00,5.8,2.8,30.12,North,349,0.0,6.0,87,0.00,,,0.00,Wunderground v.1.15,2013-01-26 09:40:00,
2013-01-26 04:49:00,5.7,2.7,30.12,North,349,0.0,6.0,87,0.00,,,0.00,Wunderground v.1.15,2013-01-26 09:49:00,
2013-01-26 04:54:00,5.7,2.9,30.12,North,349,0.0,6.0,88,0.00,,,0.00,Wunderground v.1.15,2013-01-26 09:54:00,
2013-01-26 05:00:00,5.7,2.9,30.12,North,349,0.0,6.0,88,0.00,,,0.00,Wunderground v.1.15,2013-01-26 10:00:00,
2013-01-26 05:05:00,5.8,3.0,30.12,North,349,0.0,6.0,88,0.00,,,0.00,Wunderground v.1.15,2013-01-26 10:05:00,
2013-01-26 05:10:00,5.9,3.1,30.13,NNW,348,0.0,6.0,88,0.00,,,0.00,Wunderground v.1.15,2013-01-26 10:10:00,
2013-01-26 05:15:00,5.9,3.1,30.13,NNW,348,0.0,6.0,88,0.00,,,0.00,Wunderground v.1.15,2013-01-26 10:15:00,
2013-01-26 05:24:00,6.0,3.0,30.13,NNW,348,0.0,6.0,87,0.00,,,0.00,Wunderground v.1.15,2013-01-26 10:24:00,
2013-01-26 05:29:00,6.0,3.0,30.13,NNW,348,0.0,6.0,87,0.00,,,0.00,Wunderground v.1.15,2013-01-26 10:29:00,
2013-01-26 05:34:00,6.0,3.0,30.13,NNW,348,0.0,6.0,87,0.00,,,0.00,Wunderground v.1.15,2013-01-26 10:34:00,
2013-01-26 05:40:00,5.9,2.6,30.13,NNW,348,0.0,6.0,86,0.00,,,0.00,Wunderground v.1.15,2013-01-26 10:40:00,
2013-01-26 05:45:00,5.7,2.4,30.13,NNW,348,0.0,6.0,86,0.00,,,0.00,Wunderground v.1.15,2013-01-26 10:45:00,
2013-01-26 05:50:00,5.6,2.3,30.13,NNW,348,0.0,6.0,86,0.00,,,0.00,Wunderground v.1.15,2013-01-26 10:50:00,
2013-01-26 05:59:00,5.3,2.0,30.13,NNW,348,0.0,6.0,86,0.00,,,0.00,Wunderground v.1.15,2013-01-26 10:59:00,
2013-01-26 06:04:00,5.1,1.8,30.13,NNW,348,0.0,6.0,86,0.00,,,0.00,Wunderground v.1.15,2013-01-26 11:04:00,
2013-01-26 06:10:00,5.0,1.7,30.14,NNW,348,0.0,6.0,86,0.00,,,0.00,Wunderground v.1.15,2013-01-26 11:10:00,
2013-01-26 06:15:00,4.9,1.6,30.14,NNW,348,0.0,6.0,86,0.00,,,0.00,Wunderground v.1.15,2013-01-26 11:15:00,
2013-01-26 06:20:00,4.9,1.9,30.14,NNW,348,0.0,6.0,87,0.00,,,0.00,Wunderground v.1.15,2013-01-26 11:20:00,
2013-01-26 06:25:00,4.8,1.5,30.14,NNW,348,0.0,6.0,86,0.00,,,0.00,Wunderground v.1.15,2013-01-26 11:25:00,
2013-01-26 06:30:00,4.7,1.4,30.15,NNW,348,0.0,6.0,86,0.00,,,0.00,Wunderground v.1.15,2013-01-26 11:30:00,
2013-01-26 06:39:00,4.4,1.4,30.14,NNW,348,0.0,6.0,87,0.00,,,0.00,Wunderground v.1.15,2013-01-26 11:39:00,
2013-01-26 06:45:00,4.2,1.2,30.14,NNW,348,0.0,6.0,87,0.00,,,0.00,Wunderground v.1.15,2013-01-26 11:45:00,
2013-01-26 06:50:00,4.1,1.1,30.15,NNW,348,0.0,6.0,87,0.00,,,0.00,Wunderground v.1.15,2013-01-26 11:50:00,
2013-01-26 06:55:00,4.0,1.0,30.15,NNW,348,0.0,6.0,87,0.00,,,0.00,Wunderground v.1.15,2013-01-26 11:55:00,
2013-01-26 07:00:00,3.9,0.9,30.15,NNW,348,0.0,6.0,87,0.00,,,0.00,Wunderground v.1.15,2013-01-26 12:00:00,
2013-01-26 07:09:00,3.6,0.6,30.16,NNW,348,0.0,6.0,87,0.00,,,0.00,Wunderground v.1.15,2013-01-26 12:09:00,
2013-01-26 07:14:00,3.4,0.4,30.16,NNW,348,0.0,6.0,87,0.00,,,0.00,Wunderground v.1.15,2013-01-26 12:14:00,
2013-01-26 07:20:00,3.3,0.3,30.16,NNW,348,0.0,6.0,87,0.00,,,0.00,Wunderground v.1.15,2013-01-26 12:20:00,
2013-01-26 07:25:00,3.6,0.8,30.16,NNW,348,0.0,6.0,88,0.00,,,0.00,Wunderground v.1.15,2013-01-26 12:25:00,
2013-01-26 07:30:00,4.1,1.6,30.17,North,349,0.0,6.0,89,0.00,,,0.00,Wunderground v.1.15,2013-01-26 12:30:00,
2013-01-26 07:39:00,5.5,2.7,30.17,NNW,347,2.0,2.0,88,0.00,,,0.00,Wunderground v.1.15,2013-01-26 12:39:00,
2013-01-26 07:45:00,6.0,3.0,30.17,NNW,338,2.0,6.0,87,0.00,,,0.00,Wunderground v.1.15,2013-01-26 12:45:00,
2013-01-26 07:50:00,6.3,3.3,30.17,NNW,344,1.0,1.0,87,0.00,,,0.00,Wunderground v.1.15,2013-01-26 12:50:00,
2013-01-26 07:55:00,6.5,3.2,30.17,NW,318,1.0,6.0,86,0.00,,,0.00,Wunderground v.1.15,2013-01-26 12:55:00,
2013-01-26 08:00:00,6.7,3.4,30.17,NW,320,1.0,1.0,86,0.00,,,0.00,Wunderground v.1.15,2013-01-26 13:00:00,
2013-01-26 08:10:00,7.1,3.3,30.18,NNW,330,1.0,1.0,84,0.00,,,0.00,Wunderground v.1.15,2013-01-26 13:10:00,
2013-01-26 08:19:00,7.5,3.7,30.18,NNW,330,0.0,6.0,84,0.00,,,0.00,Wunderground v.1.15,2013-01-26 13:19:00,
2013-01-26 08:25:00,7.6,4.0,30.18,NNW,330,0.0,6.0,85,0.00,,,0.00,Wunderground v.1.15,2013-01-26 13:25:00,
2013-01-26 08:30:00,7.9,4.3,30.19,NNW,333,1.0,6.0,85,0.00,,,0.00,Wunderground v.1.15,2013-01-26 13:30:00,
2013-01-26 08:35:00,8.1,4.3,30.19,NNW,333,1.0,6.0,84,0.00,,,0.00,Wunderground v.1.15,2013-01-26 13:35:00,
2013-01-26 08:40:00,8.4,4.6,30.19,NNW,334,1.0,1.0,84,0.00,,,0.00,Wunderground v.1.15,2013-01-26 13:40:00,
2013-01-26 08:49:00,8.8,4.7,30.20,WNW,291,2.0,2.0,83,0.00,,,0.00,Wunderground v.1.15,2013-01-26 13:49:00,
2013-01-26 08:54:00,9.0,4.9,30.20,NW,307,2.0,6.0,83,0.00,,,0.00,Wunderground v.1.15,2013-01-26 13:54:00,
2013-01-26 08:59:00,9.3,5.2,30.20,NW,307,1.0,6.0,83,0.00,,,0.00,Wunderground v.1.15,2013-01-26 13:59:00,
2013-01-26 09:05:00,9.6,5.5,30.20,NW,307,0.0,6.0,83,0.00,,,0.00,Wunderground v.1.15,2013-01-26 14:05:00,
2013-01-26 09:10:00,9.9,5.8,30.20,NW,307,0.0,6.0,83,0.00,,,0.00,Wunderground v.1.15,2013-01-26 14:10:00,
2013-01-26 09:15:00,10.2,5.8,30.20,NW,307,0.0,6.0,82,0.00,,,0.00,Wunderground v.1.15,2013-01-26 14:15:00,
2013-01-26 09:20:00,10.3,5.6,30.20,NW,313,0.0,6.0,81,0.00,,,0.00,Wunderground v.1.15,2013-01-26 14:20:00,
2013-01-26 09:29:00,11.0,6.3,30.20,NNW,327,1.0,1.0,81,0.00,,,0.00,Wunderground v.1.15,2013-01-26 14:29:00,
2013-01-26 09:34:00,11.6,6.9,30.20,NNW,327,1.0,6.0,81,0.00,,,0.00,Wunderground v.1.15,2013-01-26 14:34:00,
2013-01-26 09:40:00,12.2,6.9,30.21,NNE,31,1.0,6.0,79,0.00,,,0.00,Wunderground v.1.15,2013-01-26 14:40:00,
2013-01-26 09:45:00,12.7,7.1,30.21,NE,52,1.0,6.0,78,0.00,,,0.00,Wunderground v.1.15,2013-01-26 14:45:00,
2013-01-26 09:50:00,13.1,7.0,30.21,NE,48,2.0,6.0,76,0.00,,,0.00,Wunderground v.1.15,2013-01-26 14:50:00,
2013-01-26 09:55:00,13.4,7.2,30.21,NNE,15,2.0,6.0,76,0.00,,,0.00,Wunderground v.1.15,2013-01-26 14:55:00,
2013-01-26 10:00:00,13.9,7.7,30.21,NNE,20,1.0,6.0,76,0.00,,,0.00,Wunderground v.1.15,2013-01-26 15:00:00,
2013-01-26 10:09:00,14.8,8.3,30.21,NNW,346,1.0,1.0,75,0.00,,,0.00,Wunderground v.1.15,2013-01-26 15:09:00,
2013-01-26 10:14:00,15.2,8.7,30.21,NNW,344,1.0,6.0,75,0.00,,,0.00,Wunderground v.1.15,2013-01-26 15:14:00,
2013-01-26 10:20:00,15.6,8.5,30.21,NE,46,1.0,6.0,73,0.00,,,0.00,Wunderground v.1.15,2013-01-26 15:20:00,
2013-01-26 10:25:00,16.0,8.9,30.21,NNW,337,1.0,6.0,73,0.00,,,0.00,Wunderground v.1.15,2013-01-26 15:25:00,
2013-01-26 10:30:00,16.5,9.4,30.21,North,355,2.0,6.0,73,0.00,,,0.00,Wunderground v.1.15,2013-01-26 15:30:00,
2013-01-26 10:35:00,16.8,9.3,30.21,NNE,19,2.0,6.0,72,0.00,,,0.00,Wunderground v.1.15,2013-01-26 15:35:00,
2013-01-26 10:44:00,17.6,9.5,30.21,NNW,348,2.0,6.0,70,0.00,,,0.00,Wunderground v.1.15,2013-01-26 15:44:00,
2013-01-26 10:49:00,17.7,9.2,30.21,North,360,3.0,3.0,69,0.00,,,0.00,Wunderground v.1.15,2013-01-26 15:49:00,
2013-01-26 10:55:00,18.0,9.2,30.21,North,5,3.0,6.0,68,0.00,,,0.00,Wunderground v.1.15,2013-01-26 15:55:00,
2013-01-26 10:59:00,18.4,9.6,30.21,NNW,348,2.0,2.0,68,0.00,,,0.00,Wunderground v.1.15,2013-01-26 15:59:00,
2013-01-26 11:05:00,18.6,9.1,30.21,North,5,2.0,4.0,66,0.00,,,0.00,Wunderground v.1.15,2013-01-26 16:05:00,
2013-01-26 11:10:00,18.8,9.0,30.21,NNW,329,2.0,6.0,65,0.00,,,0.00,Wunderground v.1.15,2013-01-26 16:10:00,
2013-01-26 11:15:00,19.0,8.5,30.21,WNW,292,3.0,7.0,63,0.00,,,0.00,Wunderground v.1.15,2013-01-26 16:15:00,
2013-01-26 11:24:00,19.5,7.9,30.21,NNW,335,4.0,6.0,60,0.00,,,0.00,Wunderground v.1.15,2013-01-26 16:24:00,
2013-01-26 11:30:00,19.8,8.1,30.20,NNW,337,4.0,6.0,60,0.00,,,0.00,Wunderground v.1.15,2013-01-26 16:30:00,
2013-01-26 11:35:00,19.8,7.4,30.20,North,5,4.0,6.0,58,0.00,,,0.00,Wunderground v.1.15,2013-01-26 16:35:00,
2013-01-26 11:40:00,19.8,7.8,30.20,NNW,339,4.0,6.0,59,0.00,,,0.00,Wunderground v.1.15,2013-01-26 16:40:00,
2013-01-26 11:45:00,19.8,7.8,30.20,NE,34,4.0,6.0,59,0.00,,,0.00,Wunderground v.1.15,2013-01-26 16:45:00,
2013-01-26 11:50:00,20.1,7.7,30.20,NNE,17,4.0,4.0,58,0.00,,,0.00,Wunderground v.1.15,2013-01-26 16:50:00,
2013-01-26 11:59:00,20.3,7.5,30.20,West,279,4.0,7.0,57,0.00,,,0.00,Wunderground v.1.15,2013-01-26 16:59:00,
2013-01-26 12:04:00,20.0,7.2,30.19,NNE,17,5.0,7.0,57,0.00,,,0.00,Wunderground v.1.15,2013-01-26 17:04:00,
2013-01-26 12:09:00,20.1,7.3,30.19,NW,323,5.0,5.0,57,0.00,,,0.00,Wunderground v.1.15,2013-01-26 17:09:00,
2013-01-26 12:15:00,20.3,7.1,30.19,NNW,327,4.0,6.0,56,0.00,,,0.00,Wunderground v.1.15,2013-01-26 17:15:00,
2013-01-26 12:20:00,20.3,7.1,30.19,NW,305,6.0,9.0,56,0.00,,,0.00,Wunderground v.1.15,2013-01-26 17:20:00,
2013-01-26 12:25:00,19.8,6.2,30.19,WNW,286,7.0,9.0,55,0.00,,,0.00,Wunderground v.1.15,2013-01-26 17:25:00,
2013-01-26 12:34:00,19.8,6.2,30.19,West,278,8.0,8.0,55,0.00,,,0.00,Wunderground v.1.15,2013-01-26 17:34:00,
2013-01-26 12:39:00,20.1,6.9,30.19,NW,317,6.0,6.0,56,0.00,,,0.00,Wunderground v.1.15,2013-01-26 17:39:00,
2013-01-26 12:44:00,20.2,6.2,30.19,West,267,6.0,6.0,54,0.00,,,0.00,Wunderground v.1.15,2013-01-26 17:44:00,
2013-01-26 12:49:00,20.3,6.7,30.18,WNW,300,6.0,6.0,55,0.00,,,0.00,Wunderground v.1.15,2013-01-26 17:49:00,
2013-01-26 12:55:00,20.6,7.0,30.18,NNW,344,6.0,6.0,55,0.00,,,0.00,Wunderground v.1.15,2013-01-26 17:55:00,
2013-01-26 13:00:00,20.8,7.2,30.18,WNW,293,6.0,6.0,55,0.00,,,0.00,Wunderground v.1.15,2013-01-26 18:00:00,
2013-01-26 13:05:00,21.1,7.0,30.18,West,271,7.0,7.0,54,0.00,,,0.00,Wunderground v.1.15,2013-01-26 18:05:00,
2013-01-26 13:14:00,21.5,7.4,30.17,WNW,298,6.0,7.0,54,0.00,,,0.00,Wunderground v.1.15,2013-01-26 18:14:00,
2013-01-26 13:19:00,21.7,7.6,30.18,West,261,6.0,6.0,54,0.00,,,0.00,Wunderground v.1.15,2013-01-26 18:19:00,
2013-01-26 13:24:00,21.9,7.4,30.18,SW,219,6.0,8.0,53,0.00,,,0.00,Wunderground v.1.15,2013-01-26 18:24:00,
2013-01-26 13:30:00,21.2,6.7,30.19,SW,236,7.0,7.0,53,0.00,,,0.00,Wunderground v.1.15,2013-01-26 18:30:00,
2013-01-26 13:35:00,21.3,6.4,30.19,West,273,9.0,10.0,52,0.00,,,0.00,Wunderground v.1.15,2013-01-26 18:35:00,
2013-01-26 13:44:00,21.2,6.3,30.19,West,263,10.0,10.0,52,0.00,,,0.00,Wunderground v.1.15,2013-01-26 18:44:00,
2013-01-26 13:49:00,21.2,5.4,30.19,SW,232,10.0,10.0,50,0.00,,,0.00,Wunderground v.1.15,2013-01-26 18:49:00,
2013-01-26 13:54:00,21.0,6.1,30.20,West,277,10.0,10.0,52,0.00,,,0.00,Wunderground v.1.15,2013-01-26 18:54:00,
2013-01-26 13:59:00,21.1,5.8,30.20,WNW,299,11.0,11.0,51,0.00,,,0.00,Wunderground v.1.15,2013-01-26 18:59:00,
2013-01-26 14:05:00,21.2,6.3,30.20,WNW,296,11.0,14.0,52,0.00,,,0.00,Wunderground v.1.15,2013-01-26 19:05:00,
2013-01-26 14:10:00,21.3,6.0,30.20,NW,309,9.0,9.0,51,0.00,,,0.00,Wunderground v.1.15,2013-01-26 19:10:00,
2013-01-26 14:15:00,21.9,6.5,30.20,WNW,297,9.0,12.0,51,0.00,,,0.00,Wunderground v.1.15,2013-01-26 19:15:00,
2013-01-26 14:24:00,22.1,7.1,30.20,North,355,9.0,14.0,52,0.00,,,0.00,Wunderground v.1.15,2013-01-26 19:24:00,
2013-01-26 14:29:00,21.9,5.6,30.20,WNW,297,9.0,9.0,49,0.00,,,0.00,Wunderground v.1.15,2013-01-26 19:29:00,
2013-01-26 14:34:00,21.4,5.6,30.20,West,269,10.0,11.0,50,0.00,,,0.00,Wunderground v.1.15,2013-01-26 19:34:00,
2013-01-26 14:39:00,21.3,5.1,30.21,WNW,299,10.0,10.0,49,0.00,,,0.00,Wunderground v.1.15,2013-01-26 19:39:00,
2013-01-26 14:45:00,21.5,5.7,30.21,WNW,297,10.0,10.0,50,0.00,,,0.00,Wunderground v.1.15,2013-01-26 19:45:00,
2013-01-26 14:50:00,21.2,4.5,30.22,WNW,302,11.0,12.0,48,0.00,,,0.00,Wunderground v.1.15,2013-01-26 19:50:00,
2013-01-26 14:55:00,20.3,4.2,30.22,NW,304,12.0,12.0,49,0.00,,,0.00,Wunderground v.1.15,2013-01-26 19:55:00,
2013-01-26 15:04:00,19.7,4.0,30.22,West,265,10.0,11.0,50,0.00,,,0.00,Wunderground v.1.15,2013-01-26 20:04:00,
2013-01-26 15:09:00,19.4,4.6,30.23,West,274,11.0,11.0,52,0.00,,,0.00,Wunderground v.1.15,2013-01-26 20:09:00,
2013-01-26 15:14:00,19.4,5.0,30.23,West,279,10.0,11.0,53,0.00,,,0.00,Wunderground v.1.15,2013-01-26 20:14:00,
2013-01-26 15:20:00,19.3,4.9,30.23,WNW,283,8.0,10.0,53,0.00,,,0.00,Wunderground v.1.15,2013-01-26 20:20:00,
2013-01-26 15:25:00,19.2,5.3,30.24,WNW,299,7.0,10.0,54,0.00,,,0.00,Wunderground v.1.15,2013-01-26 20:25:00,
2013-01-26 15:30:00,19.2,5.3,30.24,West,267,8.0,8.0,54,0.00,,,0.00,Wunderground v.1.15,2013-01-26 20:30:00,
2013-01-26 15:40:00,18.9,5.4,30.24,WNW,288,10.0,10.0,55,0.00,,,0.00,Wunderground v.1.15,2013-01-26 20:40:00,
2013-01-26 15:49:00,18.5,4.6,30.24,West,274,10.0,11.0,54,0.00,,,0.00,Wunderground v.1.15,2013-01-26 20:49:00,
2013-01-26 15:54:00,18.4,4.1,30.24,NW,314,9.0,11.0,53,0.00,,,0.00,Wunderground v.1.15,2013-01-26 20:54:00,
2013-01-26 16:00:00,18.5,4.6,30.24,NNW,344,8.0,8.0,54,0.00,,,0.00,Wunderground v.1.15,2013-01-26 21:00:00,
2013-01-26 16:05:00,18.4,4.1,30.24,WNW,285,9.0,13.0,53,0.00,,,0.00,Wunderground v.1.15,2013-01-26 21:05:00,
2013-01-26 16:10:00,18.1,3.8,30.24,West,268,11.0,11.0,53,0.00,,,0.00,Wunderground v.1.15,2013-01-26 21:10:00,
2013-01-26 16:15:00,17.9,3.6,30.24,West,280,11.0,12.0,53,0.00,,,0.00,Wunderground v.1.15,2013-01-26 21:15:00,
2013-01-26 16:24:00,17.6,3.8,30.24,WSW,254,11.0,11.0,54,0.00,,,0.00,Wunderground v.1.15,2013-01-26 21:24:00,
2013-01-26 16:29:00,17.5,3.7,30.24,WNW,283,10.0,10.0,54,0.00,,,0.00,Wunderground v.1.15,2013-01-26 21:29:00,
2013-01-26 16:34:00,17.4,3.6,30.24,WNW,300,9.0,10.0,54,0.00,,,0.00,Wunderground v.1.15,2013-01-26 21:34:00,
2013-01-26 16:40:00,17.2,3.8,30.24,WNW,296,9.0,11.0,55,0.00,,,0.00,Wunderground v.1.15,2013-01-26 21:40:00,
2013-01-26 16:45:00,17.1,3.7,30.24,NW,306,9.0,11.0,55,0.00,,,0.00,Wunderground v.1.15,2013-01-26 21:45:00,
2013-01-26 16:50:00,16.8,3.8,30.25,West,275,9.0,12.0,56,0.00,,,0.00,Wunderground v.1.15,2013-01-26 21:50:00,
2013-01-26 16:55:00,16.6,4.0,30.26,WNW,303,8.0,13.0,57,0.00,,,0.00,Wunderground v.1.15,2013-01-26 21:55:00,
2013-01-26 17:04:00,16.2,3.6,30.26,WNW,285,8.0,9.0,57,0.00,,,0.00,Wunderground v.1.15,2013-01-26 22:04:00,
2013-01-26 17:10:00,16.0,3.4,30.26,WSW,242,7.0,7.0,57,0.00,,,0.00,Wunderground v.1.15,2013-01-26 22:10:00,
2013-01-26 17:15:00,15.8,3.6,30.27,West,269,6.0,7.0,58,0.00,,,0.00,Wunderground v.1.15,2013-01-26 22:15:00,
2013-01-26 17:20:00,15.6,3.8,30.27,WNW,287,4.0,4.0,59,0.00,,,0.00,Wunderground v.1.15,2013-01-26 22:20:00,
2013-01-26 17:25:00,15.4,3.6,30.28,WNW,288,4.0,6.0,59,0.00,,,0.00,Wunderground v.1.15,2013-01-26 22:25:00,
2013-01-26 17:30:00,15.3,3.5,30.28,WNW,294,5.0,6.0,59,0.00,,,0.00,Wunderground v.1.15,2013-01-26 22:30:00,
2013-01-26 17:39:00,15.1,3.7,30.28,WNW,290,5.0,6.0,60,0.00,,,0.00,Wunderground v.1.15,2013-01-26 22:39:00,
2013-01-26 17:44:00,15.0,3.6,30.28,WNW,283,6.0,6.0,60,0.00,,,0.00,Wunderground v.1.15,2013-01-26 22:44:00,
2013-01-26 17:50:00,15.0,3.6,30.29,WNW,288,5.0,6.0,60,0.00,,,0.00,Wunderground v.1.15,2013-01-26 22:50:00,
2013-01-26 17:55:00,14.8,3.8,30.29,West,267,5.0,7.0,61,0.00,,,0.00,Wunderground v.1.15,2013-01-26 22:55:00,
2013-01-26 18:00:00,14.7,3.7,30.29,NW,304,5.0,7.0,61,0.00,,,0.00,Wunderground v.1.15,2013-01-26 23:00:00,
2013-01-26 18:05:00,14.7,4.0,30.29,WNW,294,6.0,10.0,62,0.00,,,0.00,Wunderground v.1.15,2013-01-26 23:05:00,
2013-01-26 18:14:00,14.6,4.3,30.29,WNW,294,7.0,10.0,63,0.00,,,0.00,Wunderground v.1.15,2013-01-26 23:14:00,
2013-01-26 18:19:00,14.6,4.3,30.30,West,275,8.0,8.0,63,0.00,,,0.00,Wunderground v.1.15,2013-01-26 23:19:00,
2013-01-26 18:24:00,14.5,4.2,30.30,West,261,8.0,8.0,63,0.00,,,0.00,Wunderground v.1.15,2013-01-26 23:24:00,
2013-01-26 18:29:00,14.5,4.2,30.30,WNW,292,8.0,9.0,63,0.00,,,0.00,Wunderground v.1.15,2013-01-26 23:29:00,
2013-01-26 18:35:00,14.4,4.1,30.30,WNW,283,7.0,21.0,63,0.00,,,0.00,Wunderground v.1.15,2013-01-26 23:35:00,
2013-01-26 18:40:00,14.4,4.4,30.30,WNW,292,7.0,11.0,64,0.00,,,0.00,Wunderground v.1.15,2013-01-26 23:40:00,
2013-01-26 18:45:00,14.3,4.3,30.31,NW,317,7.0,11.0,64,0.00,,,0.00,Wunderground v.1.15,2013-01-26 23:45:00,
2013-01-26 18:54:00,14.3,4.3,30.31,WNW,297,8.0,11.0,64,0.00,,,0.00,Wunderground v.1.15,2013-01-26 23:54:00,
2013-01-26 18:59:00,14.3,4.3,30.30,WNW,302,8.0,8.0,64,0.00,,,0.00,Wunderground v.1.15,2013-01-26 23:59:00,
2013-01-26 19:04:00,14.2,4.6,30.31,West,281,7.0,8.0,65,0.00,,,0.00,Wunderground v.1.15,2013-01-27 00:04:00,
2013-01-26 19:10:00,14.1,4.5,30.30,NW,310,8.0,12.0,65,0.00,,,0.00,Wunderground v.1.15,2013-01-27 00:10:00,
2013-01-26 19:15:00,14.1,4.5,30.31,NW,304,9.0,12.0,65,0.00,,,0.00,Wunderground v.1.15,2013-01-27 00:15:00,
2013-01-26 19:20:00,14.1,4.8,30.31,WNW,288,9.0,12.0,66,0.00,,,0.00,Wunderground v.1.15,2013-01-27 00:20:00,
2013-01-26 19:29:00,14.1,4.8,30.32,WNW,298,9.0,9.0,66,0.00,,,0.00,Wunderground v.1.15,2013-01-27 00:29:00,
2013-01-26 19:34:00,14.0,5.1,30.32,WNW,292,8.0,12.0,67,0.00,,,0.00,Wunderground v.1.15,2013-01-27 00:34:00,
2013-01-26 19:39:00,14.0,5.1,30.32,West,281,8.0,11.0,67,0.00,,,0.00,Wunderground v.1.15,2013-01-27 00:39:00,
2013-01-26 19:44:00,13.9,5.0,30.32,WNW,288,8.0,11.0,67,0.00,,,0.00,Wunderground v.1.15,2013-01-27 00:44:00,
2013-01-26 19:50:00,13.8,4.9,30.32,West,277,6.0,6.0,67,0.00,,,0.00,Wunderground v.1.15,2013-01-27 00:50:00,
2013-01-26 19:55:00,13.7,4.8,30.32,WNW,301,5.0,6.0,67,0.00,,,0.00,Wunderground v.1.15,2013-01-27 00:55:00,
2013-01-26 20:00:00,13.5,4.9,30.32,NW,325,5.0,6.0,68,0.00,,,0.00,Wunderground v.1.15,2013-01-27 01:00:00,
2013-01-26 20:09:00,13.2,4.6,30.32,NW,304,3.0,3.0,68,0.00,,,0.00,Wunderground v.1.15,2013-01-27 01:09:00,
2013-01-26 20:14:00,13.0,4.4,30.32,WNW,294,4.0,4.0,68,0.00,,,0.00,Wunderground v.1.15,2013-01-27 01:14:00,
2013-01-26 20:19:00,12.9,4.6,30.32,NW,314,4.0,6.0,69,0.00,,,0.00,Wunderground v.1.15,2013-01-27 01:19:00,
2013-01-26 20:24:00,12.9,4.6,30.32,WNW,288,4.0,6.0,69,0.00,,,0.00,Wunderground v.1.15,2013-01-27 01:24:00,
2013-01-26 20:30:00,12.8,4.9,30.33,WNW,284,4.0,4.0,70,0.00,,,0.00,Wunderground v.1.15,2013-01-27 01:30:00,
2013-01-26 20:35:00,12.7,4.8,30.33,West,266,4.0,6.0,70,0.00,,,0.00,Wunderground v.1.15,2013-01-27 01:35:00,
2013-01-26 20:40:00,12.7,4.8,30.33,West,277,4.0,6.0,70,0.00,,,0.00,Wunderground v.1.15,2013-01-27 01:40:00,
2013-01-26 20:49:00,12.6,5.0,30.33,West,274,4.0,4.0,71,0.00,,,0.00,Wunderground v.1.15,2013-01-27 01:49:00,
2013-01-26 20:54:00,12.7,5.1,30.33,West,277,5.0,5.0,71,0.00,,,0.00,Wunderground v.1.15,2013-01-27 01:54:00,
2013-01-26 20:59:00,12.6,5.0,30.33,West,273,5.0,5.0,71,0.00,,,0.00,Wunderground v.1.15,2013-01-27 01:59:00,
2013-01-26 21:05:00,12.6,5.0,30.34,WNW,286,5.0,9.0,71,0.00,,,0.00,Wunderground v.1.15,2013-01-27 02:05:00,
2013-01-26 21:10:00,12.5,4.9,30.34,WNW,292,4.0,7.0,71,0.00,,,0.00,Wunderground v.1.15,2013-01-27 02:10:00,
2013-01-26 21:15:00,12.4,5.1,30.34,West,281,4.0,7.0,72,0.00,,,0.00,Wunderground v.1.15,2013-01-27 02:15:00,
2013-01-26 21:25:00,12.2,4.9,30.35,WNW,303,4.0,6.0,72,0.00,,,0.00,Wunderground v.1.15,2013-01-27 02:25:00,
2013-01-26 21:34:00,12.1,4.8,30.35,WNW,290,3.0,6.0,72,0.00,,,0.00,Wunderground v.1.15,2013-01-27 02:34:00,
2013-01-26 21:39:00,11.9,4.6,30.36,WNW,294,2.0,6.0,72,0.00,,,0.00,Wunderground v.1.15,2013-01-27 02:39:00,
2013-01-26 21:45:00,11.8,4.8,30.36,WNW,282,2.0,6.0,73,0.00,,,0.00,Wunderground v.1.15,2013-01-27 02:45:00,
2013-01-26 21:50:00,11.7,4.7,30.36,WNW,291,2.0,2.0,73,0.00,,,0.00,Wunderground v.1.15,2013-01-27 02:50:00,
2013-01-26 21:55:00,11.6,4.6,30.36,WNW,299,1.0,6.0,73,0.00,,,0.00,Wunderground v.1.15,2013-01-27 02:55:00,
2013-01-26 22:00:00,11.4,4.4,30.36,WNW,303,1.0,1.0,73,0.00,,,0.00,Wunderground v.1.15,2013-01-27 03:00:00,
2013-01-26 22:09:00,11.2,4.5,30.37,NW,304,0.0,6.0,74,0.00,,,0.00,Wunderground v.1.15,2013-01-27 03:09:00,
2013-01-26 22:14:00,11.1,4.4,30.37,NW,304,0.0,6.0,74,0.00,,,0.00,Wunderground v.1.15,2013-01-27 03:14:00,
2013-01-26 22:19:00,11.0,4.3,30.37,WNW,299,0.0,6.0,74,0.00,,,0.00,Wunderground v.1.15,2013-01-27 03:19:00,
2013-01-26 22:25:00,11.0,4.6,30.37,WNW,299,0.0,6.0,75,0.00,,,0.00,Wunderground v.1.15,2013-01-27 03:25:00,
2013-01-26 22:30:00,11.1,4.4,30.37,WNW,299,0.0,6.0,74,0.00,,,0.00,Wunderground v.1.15,2013-01-27 03:30:00,
2013-01-26 22:35:00,11.1,4.4,30.38,WNW,299,0.0,6.0,74,0.00,,,0.00,Wunderground v.1.15,2013-01-27 03:35:00,
2013-01-26 22:44:00,10.9,4.2,30.38,WNW,299,0.0,6.0,74,0.00,,,0.00,Wunderground v.1.15,2013-01-27 03:44:00,
2013-01-26 22:49:00,10.7,4.0,30.38,WNW,299,0.0,6.0,74,0.00,,,0.00,Wunderground v.1.15,2013-01-27 03:49:00,
2013-01-26 22:55:00,10.7,4.3,30.38,WNW,299,0.0,6.0,75,0.00,,,0.00,Wunderground v.1.15,2013-01-27 03:55:00,
2013-01-26 23:00:00,10.8,4.4,30.38,WNW,288,1.0,1.0,75,0.00,,,0.00,Wunderground v.1.15,2013-01-27 04:00:00,
2013-01-26 23:05:00,10.8,4.4,30.38,WNW,288,1.0,6.0,75,0.00,,,0.00,Wunderground v.1.15,2013-01-27 04:05:00,
2013-01-26 23:10:00,10.7,4.3,30.38,WNW,288,0.0,6.0,75,0.00,,,0.00,Wunderground v.1.15,2013-01-27 04:10:00,
2013-01-26 23:15:00,10.6,4.5,30.38,WNW,288,0.0,6.0,76,0.00,,,0.00,Wunderground v.1.15,2013-01-27 04:15:00,
2013-01-26 23:24:00,10.4,4.3,30.39,WNW,288,0.0,6.0,76,0.00,,,0.00,Wunderground v.1.15,2013-01-27 04:24:00,
2013-01-26 23:29:00,10.3,4.2,30.39,WNW,288,0.0,6.0,76,0.00,,,0.00,Wunderground v.1.15,2013-01-27 04:29:00,
2013-01-26 23:35:00,10.2,4.4,30.39,WNW,288,0.0,6.0,77,0.00,,,0.00,Wunderground v.1.15,2013-01-27 04:35:00,
2013-01-26 23:40:00,10.0,4.2,30.39,WNW,288,0.0,6.0,77,0.00,,,0.00,Wunderground v.1.15,2013-01-27 04:40:00,
2013-01-26 23:45:00,9.8,4.0,30.39,WNW,288,0.0,6.0,77,0.00,,,0.00,Wunderground v.1.15,2013-01-27 04:45:00,
2013-01-26 23:54:00,9.6,4.1,30.40,WNW,288,1.0,6.0,78,0.00,,,0.00,Wunderground v.1.15,2013-01-27 04:54:00,
2013-01-26 23:59:00,9.7,4.5,30.39,West,277,1.0,6.0,79,0.00,,,0.00,Wunderground v.1.15,2013-01-27 04:59:00,